Time;durP1;ratioP1;P1;durP2;ratioP2;P2;SDS_P1;SDS_P2;PMS_P1;PMS_P2;Temp;Humidity;BMP_temperature;BMP_pressure;BME280_temperature;BME280_humidity;BME280_pressure;Samples;Min_cycle;Max_cycle;Signal;HPM_P1;HPM_P2
2022/06/08 00:01:05;;;;;;;7.40;2.28;;;14.60;99.90;;;;;;5071949;28;20033;-57
2022/06/08 00:03:45;;;;;;;11.35;2.75;;;14.60;99.90;;;;;;5071848;28;20462;-51
2022/06/08 00:06:11;;;;;;;8.02;2.85;;;14.60;99.90;;;;;;5059538;28;20024;-61
2022/06/08 00:08:37;;;;;;;7.93;2.78;;;14.60;99.90;;;;;;5071374;28;20051;-51
2022/06/08 00:11:03;;;;;;;9.70;2.85;;;14.50;99.90;;;;;;5071710;28;20063;-57
2022/06/08 00:13:29;;;;;;;9.45;2.92;;;14.50;99.90;;;;;;5071791;28;20463;-54
2022/06/08 00:15:55;;;;;;;6.25;2.80;;;14.50;99.90;;;;;;5071410;28;20026;-57
2022/06/08 00:18:21;;;;;;;12.43;3.13;;;14.50;99.90;;;;;;5071234;28;20131;-56
2022/06/08 00:20:47;;;;;;;13.25;3.03;;;14.50;99.90;;;;;;5070722;28;20161;-56
2022/06/08 00:23:13;;;;;;;12.75;3.40;;;14.50;99.90;;;;;;5071507;28;20072;-61
2022/06/08 00:25:39;;;;;;;9.77;2.95;;;14.50;99.90;;;;;;5071677;28;20025;-59
2022/06/08 00:28:05;;;;;;;9.68;3.40;;;14.50;99.90;;;;;;5071347;28;20024;-60
2022/06/08 00:30:31;;;;;;;13.73;3.28;;;14.50;99.90;;;;;;5053233;28;20024;-61
2022/06/08 00:32:57;;;;;;;12.48;3.67;;;14.50;99.90;;;;;;5057075;28;20031;-59
2022/06/08 00:35:23;;;;;;;12.80;4.07;;;14.50;99.90;;;;;;5071329;28;20111;-51
2022/06/08 00:37:49;;;;;;;10.98;3.80;;;14.50;99.90;;;;;;5070931;28;20741;-55
2022/06/08 00:40:18;;;;;;;10.93;3.88;;;14.50;99.90;;;;;;5071288;28;20040;-60
2022/06/08 00:42:44;;;;;;;9.75;3.92;;;14.50;99.90;;;;;;5071122;28;20028;-56
2022/06/08 00:45:14;;;;;;;11.63;3.97;;;14.50;99.90;;;;;;5071031;28;20028;-47
2022/06/08 00:47:51;;;;;;;9.85;4.57;;;14.50;99.90;;;;;;5070812;28;20012;-59
2022/06/08 00:50:21;;;;;;;9.32;4.32;;;14.50;99.90;;;;;;5071138;28;20487;-50
2022/06/08 00:52:48;;;;;;;10.27;4.70;;;14.50;99.90;;;;;;5071034;28;20035;-48
2022/06/08 00:55:16;;;;;;;9.73;4.20;;;14.50;99.90;;;;;;5071205;28;20082;-53
2022/06/08 00:58:05;;;;;;;10.00;3.42;;;14.50;99.90;;;;;;5070675;28;20399;-54
2022/06/08 01:00:39;;;;;;;7.10;3.90;;;14.40;99.90;;;;;;5060210;28;20115;-51
2022/06/08 01:03:07;;;;;;;8.90;4.20;;;14.40;99.90;;;;;;5070815;28;20254;-45
2022/06/08 01:05:57;;;;;;;7.90;4.03;;;14.40;99.90;;;;;;5071114;28;20020;-47
2022/06/08 01:08:42;;;;;;;10.77;4.50;;;14.40;99.90;;;;;;5069885;28;20391;-41
2022/06/08 01:11:21;;;;;;;10.23;4.78;;;14.40;99.90;;;;;;5054728;28;20029;-43
2022/06/08 01:13:47;;;;;;;7.18;3.42;;;14.40;99.90;;;;;;5050912;28;20063;-50
2022/06/08 01:16:14;;;;;;;5.07;3.00;;;14.40;99.90;;;;;;5050704;28;20021;-53
2022/06/08 01:18:41;;;;;;;5.32;2.92;;;14.40;99.90;;;;;;5060310;28;20044;-48
2022/06/08 01:21:21;;;;;;;7.45;2.70;;;14.40;99.90;;;;;;5050514;28;20032;-58
2022/06/08 01:23:48;;;;;;;5.45;2.35;;;14.40;99.90;;;;;;5050705;28;20048;-58
2022/06/08 01:26:28;;;;;;;4.72;2.38;;;14.40;99.90;;;;;;5050596;28;20029;-55
2022/06/08 01:29:00;;;;;;;6.35;2.58;;;14.40;99.90;;;;;;5051247;28;20395;-52
2022/06/08 01:31:57;;;;;;;3.15;2.00;;;14.40;99.90;;;;;;5052142;28;20380;-53
2022/06/08 01:34:56;;;;;;;4.50;1.80;;;14.40;99.90;;;;;;5066720;28;20024;-58
2022/06/08 01:37:37;;;;;;;3.00;1.48;;;14.50;99.90;;;;;;5056525;28;20044;-57
2022/06/08 01:40:12;;;;;;;1.80;1.40;;;14.50;99.90;;;;;;5074153;28;20395;-56
2022/06/08 01:43:05;;;;;;;3.75;1.50;;;14.50;99.90;;;;;;5074570;28;20055;-55
2022/06/08 01:45:46;;;;;;;3.85;1.38;;;14.50;99.90;;;;;;5056343;28;20430;-58
2022/06/08 01:48:26;;;;;;;4.25;1.50;;;14.50;99.90;;;;;;5073919;28;20379;-55
2022/06/08 01:51:26;;;;;;;6.45;1.38;;;14.60;99.90;;;;;;5062251;28;20039;-59
2022/06/08 01:53:51;;;;;;;1.55;1.23;;;14.60;99.90;;;;;;5074178;28;20095;-60
2022/06/08 01:56:54;;;;;;;2.53;1.20;;;14.60;99.90;;;;;;5074277;28;20448;-59
2022/06/08 01:59:26;;;;;;;2.75;1.45;;;14.60;99.90;;;;;;5061238;28;20692;-54
2022/06/08 02:02:31;;;;;;;2.20;1.17;;;14.60;99.90;;;;;;5073861;28;20025;-53
2022/06/08 02:05:05;;;;;;;1.73;1.08;;;14.60;99.90;;;;;;5074039;28;20116;-53
2022/06/08 02:07:42;;;;;;;3.40;1.33;;;14.60;99.90;;;;;;5073904;28;20295;-62
2022/06/08 02:10:26;;;;;;;1.70;0.90;;;14.60;99.90;;;;;;5073915;28;20021;-59
2022/06/08 02:12:57;;;;;;;1.10;1.00;;;14.60;99.90;;;;;;5060664;28;20028;-60
2022/06/08 02:15:31;;;;;;;1.58;0.95;;;14.70;99.90;;;;;;5065506;28;20121;-58
2022/06/08 02:18:02;;;;;;;1.73;1.10;;;14.70;99.90;;;;;;5073610;28;20063;-58
2022/06/08 02:20:46;;;;;;;2.45;1.00;;;14.70;99.90;;;;;;5073767;28;20131;-45
2022/06/08 02:23:41;;;;;;;2.38;1.20;;;14.70;99.90;;;;;;5059602;28;20095;-55
2022/06/08 02:26:13;;;;;;;2.22;1.10;;;14.70;99.90;;;;;;5066854;28;20491;-57
2022/06/08 02:28:45;;;;;;;6.25;1.42;;;14.70;99.90;;;;;;5073349;28;20028;-54
2022/06/08 02:31:25;;;;;;;2.35;1.48;;;14.70;99.90;;;;;;5073642;28;20634;-59
2022/06/08 02:36:56;;;;;;;4.88;1.80;;;14.80;99.90;;;;;;5073542;28;20063;-58
2022/06/08 02:39:30;;;;;;;4.13;1.88;;;14.80;99.90;;;;;;5073205;28;20040;-51
2022/06/08 02:42:03;;;;;;;3.58;1.77;;;14.80;99.90;;;;;;5073251;28;20111;-46
2022/06/08 02:44:32;;;;;;;3.95;2.20;;;14.80;99.90;;;;;;5072717;28;20033;-46
2022/06/08 02:47:13;;;;;;;5.30;2.10;;;14.80;99.90;;;;;;5073139;28;20017;-62
2022/06/08 02:49:39;;;;;;;3.88;2.00;;;14.80;99.90;;;;;;5068315;28;20020;-45
2022/06/08 02:52:19;;;;;;;5.43;2.17;;;14.80;99.90;;;;;;5063742;28;20101;-58
2022/06/08 02:54:46;;;;;;;7.75;2.10;;;14.80;99.90;;;;;;5072899;28;20543;-57
2022/06/08 02:57:37;;;;;;;4.50;2.00;;;14.80;99.90;;;;;;5072634;28;20032;-52
2022/06/08 03:00:10;;;;;;;5.07;2.50;;;14.80;99.90;;;;;;5072863;28;20056;-60
2022/06/08 03:02:56;;;;;;;4.95;2.40;;;14.80;99.90;;;;;;5072981;28;20035;-60
2022/06/08 03:05:33;;;;;;;5.03;2.50;;;14.90;99.90;;;;;;5073194;28;20127;-59
2022/06/08 03:08:08;;;;;;;8.98;2.65;;;14.90;99.90;;;;;;5072740;28;20052;-60
2022/06/08 03:10:40;;;;;;;6.88;2.53;;;14.80;99.90;;;;;;5072834;28;20104;-56
2022/06/08 03:13:26;;;;;;;4.13;2.22;;;14.80;99.90;;;;;;5072713;28;20032;-60
2022/06/08 03:16:02;;;;;;;7.20;2.25;;;14.90;99.90;;;;;;5072722;28;20023;-45
2022/06/08 03:18:29;;;;;;;6.68;2.47;;;14.90;99.90;;;;;;5072219;28;20086;-58
2022/06/08 03:20:56;;;;;;;5.78;2.88;;;14.90;99.90;;;;;;5072632;28;20452;-62
2022/06/08 03:23:23;;;;;;;6.25;3.22;;;14.90;99.90;;;;;;5071499;28;20052;-62
2022/06/08 03:25:49;;;;;;;5.35;2.58;;;14.90;99.90;;;;;;5059556;28;20051;-62
2022/06/08 03:28:16;;;;;;;7.05;2.63;;;14.90;99.90;;;;;;5071672;28;20055;-44
2022/06/08 03:30:43;;;;;;;5.22;2.72;;;14.90;99.90;;;;;;5072257;28;20537;-61
2022/06/08 03:33:09;;;;;;;4.05;2.22;;;14.90;99.90;;;;;;5072239;28;20480;-60
2022/06/08 03:35:36;;;;;;;6.28;2.70;;;14.90;99.90;;;;;;5072423;28;20107;-58
2022/06/08 03:38:02;;;;;;;5.88;2.72;;;14.90;99.90;;;;;;5071435;28;20017;-59
2022/06/08 03:40:28;;;;;;;5.72;2.67;;;14.90;99.90;;;;;;5071889;28;20044;-61
2022/06/08 03:42:54;;;;;;;5.63;2.92;;;14.90;99.90;;;;;;5087452;28;20474;-53
2022/06/08 03:45:20;;;;;;;4.80;2.42;;;14.80;99.90;;;;;;5072345;28;20040;-57
2022/06/08 03:47:50;;;;;;;6.90;2.47;;;14.90;99.90;;;;;;5071756;28;20028;-57
2022/06/08 03:50:20;;;;;;;5.25;2.47;;;14.90;99.90;;;;;;5071887;28;20111;-55
2022/06/08 03:53:09;;;;;;;3.42;1.80;;;14.90;99.90;;;;;;5072081;28;20108;-59
2022/06/08 03:55:36;;;;;;;2.92;1.58;;;14.90;99.90;;;;;;5071462;28;20067;-51
2022/06/08 03:58:02;;;;;;;1.75;1.27;;;14.90;99.90;;;;;;5071544;28;20056;-49
2022/06/08 04:00:29;;;;;;;2.90;1.13;;;14.90;99.90;;;;;;5071633;28;20035;-62
2022/06/08 04:02:56;;;;;;;4.15;1.48;;;14.90;99.90;;;;;;5071601;28;20086;-59
2022/06/08 04:05:22;;;;;;;3.08;1.23;;;14.90;99.90;;;;;;5071697;28;20028;-51
2022/06/08 04:07:47;;;;;;;3.33;1.45;;;14.90;99.90;;;;;;5071342;28;20039;-53
2022/06/08 04:10:14;;;;;;;1.65;1.00;;;14.90;99.90;;;;;;5071670;28;20395;-60
2022/06/08 04:12:40;;;;;;;2.60;1.23;;;15.00;99.90;;;;;;5071494;28;20046;-59
2022/06/08 04:15:06;;;;;;;2.53;1.30;;;15.00;99.90;;;;;;5087361;28;20477;-59
2022/06/08 04:17:32;;;;;;;7.93;1.38;;;15.00;99.90;;;;;;5071039;28;20016;-45
2022/06/08 04:19:57;;;;;;;4.70;1.45;;;15.00;99.90;;;;;;5071498;28;20043;-61
2022/06/08 04:22:30;;;;;;;2.60;1.20;;;15.00;99.90;;;;;;5071261;28;20024;-59
2022/06/08 04:24:57;;;;;;;2.92;1.08;;;15.00;99.90;;;;;;5057601;28;20021;-59
2022/06/08 04:27:22;;;;;;;4.28;1.30;;;15.00;99.90;;;;;;5057397;28;20012;-57
2022/06/08 04:29:48;;;;;;;3.55;1.42;;;15.00;99.90;;;;;;5071372;28;20082;-57
2022/06/08 04:32:14;;;;;;;3.47;1.60;;;15.00;99.90;;;;;;5071176;28;20017;-41
2022/06/08 04:34:41;;;;;;;5.38;1.60;;;15.00;99.90;;;;;;5071234;28;20012;-44
2022/06/08 04:37:07;;;;;;;7.50;2.35;;;15.00;99.90;;;;;;5070688;28;20021;-42
2022/06/08 04:39:32;;;;;;;6.97;2.50;;;15.00;99.90;;;;;;5070835;28;20032;-47
2022/06/08 04:41:58;;;;;;;6.18;3.00;;;15.10;99.90;;;;;;5070922;28;20020;-46
2022/06/08 04:44:24;;;;;;;7.35;3.40;;;15.10;99.90;;;;;;5071033;28;20025;-42
2022/06/08 04:46:50;;;;;;;5.18;3.15;;;15.10;99.90;;;;;;5070860;28;20081;-41
2022/06/08 04:49:16;;;;;;;7.43;3.40;;;15.10;99.90;;;;;;5070826;28;20151;-41
2022/06/08 04:51:42;;;;;;;5.95;3.47;;;15.10;99.90;;;;;;5086769;28;20251;-40
2022/06/08 04:54:07;;;;;;;13.02;4.28;;;15.10;99.90;;;;;;5086611;28;20063;-50
2022/06/08 04:56:33;;;;;;;7.35;3.80;;;15.10;99.90;;;;;;5071051;28;20021;-48
2022/06/08 04:58:59;;;;;;;10.20;3.60;;;15.10;99.90;;;;;;5070376;28;20044;-59
2022/06/08 05:01:25;;;;;;;7.22;3.20;;;15.10;99.90;;;;;;5071113;28;20016;-58
2022/06/08 05:03:51;;;;;;;10.23;3.70;;;15.10;99.90;;;;;;5070935;28;20065;-62
2022/06/08 05:06:16;;;;;;;7.35;3.30;;;15.20;99.90;;;;;;5070621;28;20104;-60
2022/06/08 05:08:42;;;;;;;6.63;3.50;;;15.20;99.90;;;;;;5066584;28;20391;-59
2022/06/08 05:11:08;;;;;;;9.77;2.80;;;15.20;99.90;;;;;;5064402;28;20601;-60
2022/06/08 05:13:36;;;;;;;7.63;3.85;;;15.20;99.90;;;;;;5065774;28;20028;-60
2022/06/08 05:16:04;;;;;;;8.88;3.03;;;15.20;99.90;;;;;;5068423;28;20036;-53
2022/06/08 05:18:30;;;;;;;5.13;2.63;;;15.20;99.90;;;;;;5061085;28;20104;-59
2022/06/08 05:20:57;;;;;;;6.18;3.10;;;15.30;99.90;;;;;;5067250;28;20094;-51
2022/06/08 05:23:30;;;;;;;6.88;3.72;;;15.30;99.90;;;;;;5052070;28;20017;-64
2022/06/08 05:25:56;;;;;;;6.30;3.33;;;15.30;99.90;;;;;;5070976;28;20032;-52
2022/06/08 05:28:22;;;;;;;6.32;3.30;;;15.40;99.90;;;;;;5064566;28;20028;-42
2022/06/08 05:30:49;;;;;;;6.55;3.10;;;15.30;99.90;;;;;;5070771;28;20031;-47
2022/06/08 05:33:15;;;;;;;8.45;3.25;;;15.40;99.90;;;;;;5070685;28;20032;-53
2022/06/08 05:35:42;;;;;;;6.53;4.00;;;15.30;99.90;;;;;;5070730;28;20078;-56
2022/06/08 05:38:08;;;;;;;6.88;3.65;;;15.30;99.90;;;;;;5070550;28;20040;-63
2022/06/08 05:40:36;;;;;;;11.13;3.90;;;15.40;99.90;;;;;;5070519;28;20040;-54
2022/06/08 05:43:07;;;;;;;10.57;4.38;;;15.30;99.90;;;;;;5067400;28;20016;-53
2022/06/08 05:45:33;;;;;;;10.20;4.25;;;15.40;99.90;;;;;;5069806;28;20081;-53
2022/06/08 05:47:59;;;;;;;12.95;4.80;;;15.30;99.90;;;;;;5057701;28;20032;-54
2022/06/08 05:50:26;;;;;;;12.25;5.03;;;15.40;99.90;;;;;;5057383;28;20021;-60
2022/06/08 05:52:52;;;;;;;10.40;4.53;;;15.40;99.90;;;;;;5054784;28;20041;-47
2022/06/08 05:55:20;;;;;;;13.32;5.28;;;15.40;99.90;;;;;;5066728;28;20029;-48
2022/06/08 05:57:46;;;;;;;11.82;4.80;;;15.40;99.90;;;;;;5068014;28;20170;-49
2022/06/08 06:00:16;;;;;;;12.55;5.18;;;15.40;99.90;;;;;;5068618;28;20119;-58
2022/06/08 06:02:43;;;;;;;13.18;4.90;;;15.50;99.90;;;;;;5070348;28;21016;-58
2022/06/08 06:05:10;;;;;;;14.10;5.03;;;15.50;99.90;;;;;;5070124;28;20056;-58
2022/06/08 06:07:37;;;;;;;10.40;4.88;;;15.50;99.90;;;;;;5070160;28;20024;-61
2022/06/08 06:10:04;;;;;;;13.40;5.32;;;15.60;99.90;;;;;;5069984;28;20426;-58
2022/06/08 06:12:30;;;;;;;9.68;4.47;;;15.70;99.90;;;;;;5070084;28;20024;-47
2022/06/08 06:14:57;;;;;;;9.32;4.03;;;15.80;99.90;;;;;;5070166;28;20043;-60
2022/06/08 06:17:23;;;;;;;8.07;4.07;;;15.90;99.90;;;;;;5070630;28;20095;-54
2022/06/08 06:19:49;;;;;;;10.60;4.28;;;15.90;99.90;;;;;;5073422;28;20131;-54
2022/06/08 06:22:15;;;;;;;13.20;4.32;;;16.00;99.90;;;;;;5089627;28;20021;-61
2022/06/08 06:24:41;;;;;;;10.32;4.22;;;16.10;99.90;;;;;;5061869;28;20024;-60
2022/06/08 06:27:07;;;;;;;13.13;4.85;;;16.20;99.90;;;;;;5071301;28;20084;-56
2022/06/08 06:29:33;;;;;;;11.27;4.40;;;16.20;99.90;;;;;;5073488;28;20048;-60
2022/06/08 06:32:02;;;;;;;13.52;4.45;;;16.20;99.90;;;;;;5073667;28;20392;-57
2022/06/08 06:34:29;;;;;;;9.73;4.38;;;16.10;99.90;;;;;;5073706;28;20024;-57
2022/06/08 06:36:56;;;;;;;9.25;4.45;;;16.20;99.90;;;;;;5073329;28;20107;-57
2022/06/08 06:39:23;;;;;;;9.55;3.83;;;16.10;99.90;;;;;;5073454;28;20056;-60
2022/06/08 06:41:49;;;;;;;12.73;4.60;;;16.10;99.90;;;;;;5073300;28;20081;-56
2022/06/08 06:44:15;;;;;;;8.38;3.90;;;16.00;99.90;;;;;;5073382;28;20021;-57
2022/06/08 06:46:41;;;;;;;11.43;4.60;;;16.20;99.90;;;;;;5073285;28;20150;-46
2022/06/08 06:49:07;;;;;;;10.57;4.93;;;16.20;99.90;;;;;;5073329;28;20028;-56
2022/06/08 06:51:34;;;;;;;13.48;5.00;;;16.30;99.90;;;;;;5073286;28;20419;-49
2022/06/08 06:54:04;;;;;;;11.75;5.05;;;16.40;99.90;;;;;;5073115;28;20111;-59
2022/06/08 06:56:32;;;;;;;9.18;4.60;;;16.60;99.90;;;;;;5073101;28;20021;-60
2022/06/08 06:58:59;;;;;;;9.45;4.20;;;16.90;99.90;;;;;;5073076;28;20082;-59
2022/06/08 07:01:24;;;;;;;11.02;4.28;;;17.10;99.90;;;;;;5064160;28;20110;-60
2022/06/08 07:03:50;;;;;;;11.30;4.43;;;17.20;99.90;;;;;;5058422;28;20107;-52
2022/06/08 07:06:16;;;;;;;9.48;4.20;;;17.20;99.90;;;;;;5052944;28;20031;-58
2022/06/08 07:08:41;;;;;;;10.82;4.22;;;17.20;99.90;;;;;;5052542;28;20458;-46
2022/06/08 07:13:52;;;;;;;10.63;4.22;;;17.30;99.90;;;;;;5061724;28;20035;-55
2022/06/08 07:16:18;;;;;;;10.27;3.97;;;17.30;99.90;;;;;;5069490;28;20025;-54
2022/06/08 07:18:43;;;;;;;10.15;4.20;;;17.30;99.80;;;;;;5062726;28;20245;-54
2022/06/08 07:21:10;;;;;;;7.78;3.90;;;17.30;99.90;;;;;;5053060;28;20025;-60
2022/06/08 07:23:36;;;;;;;8.32;3.75;;;17.20;99.70;;;;;;5068229;28;20511;-58
2022/06/08 07:26:02;;;;;;;7.45;4.20;;;17.20;99.90;;;;;;5054904;28;20032;-58
2022/06/08 07:28:28;;;;;;;7.22;3.97;;;17.20;99.90;;;;;;5064532;28;20021;-59
2022/06/08 07:30:54;;;;;;;9.60;4.18;;;17.20;99.50;;;;;;5062665;28;20029;-47
2022/06/08 07:33:20;;;;;;;12.20;4.60;;;17.30;99.90;;;;;;5052507;28;20376;-58
2022/06/08 07:35:46;;;;;;;9.77;5.25;;;17.30;99.90;;;;;;5052184;28;20400;-48
2022/06/08 07:38:12;;;;;;;13.00;5.63;;;17.40;99.90;;;;;;5052026;28;20105;-57
2022/06/08 07:40:38;;;;;;;13.07;5.28;;;17.40;99.90;;;;;;5052234;28;20112;-51
2022/06/08 07:43:03;;;;;;;13.07;5.20;;;17.40;99.90;;;;;;5052129;28;20552;-59
2022/06/08 07:45:29;;;;;;;12.73;5.10;;;17.60;99.90;;;;;;5052265;28;20431;-56
2022/06/08 07:50:41;;;;;;;9.70;4.90;;;17.60;99.40;;;;;;5061713;28;20035;-45
2022/06/08 07:53:07;;;;;;;14.80;5.63;;;17.80;99.30;;;;;;5052214;28;20079;-57
2022/06/08 07:55:33;;;;;;;13.40;5.13;;;18.30;99.90;;;;;;5051588;28;20031;-59
2022/06/08 07:57:59;;;;;;;8.82;3.65;;;19.00;99.90;;;;;;5051494;28;20049;-55
2022/06/08 08:00:26;;;;;;;9.60;3.65;;;20.00;97.60;;;;;;5053788;28;20068;-59
2022/06/08 08:02:52;;;;;;;6.28;2.50;;;21.30;98.80;;;;;;5072038;28;20104;-60
2022/06/08 08:05:19;;;;;;;18.85;3.17;;;21.90;88.40;;;;;;5071803;28;20063;-51
2022/06/08 08:07:45;;;;;;;7.30;2.92;;;22.60;94.70;;;;;;5071406;28;20100;-57
2022/06/08 08:10:21;;;;;;;6.90;2.03;;;23.50;89.40;;;;;;5071673;28;20201;-58
2022/06/08 08:12:48;;;;;;;6.72;2.25;;;23.80;82.60;;;;;;5053910;28;20029;-49
2022/06/08 08:15:16;;;;;;;6.32;2.20;;;23.90;88.50;;;;;;5061448;28;20047;-57
2022/06/08 08:17:42;;;;;;;9.10;2.25;;;23.60;80.60;;;;;;5071237;28;20021;-57
2022/06/08 08:20:11;;;;;;;5.03;1.70;;;22.80;83.10;;;;;;5071323;28;20047;-55
2022/06/08 08:22:36;;;;;;;8.65;2.10;;;22.00;80.10;;;;;;5071612;28;20020;-60
2022/06/08 08:25:03;;;;;;;6.80;2.03;;;21.20;89.60;;;;;;5057340;28;20029;-55
2022/06/08 08:27:29;;;;;;;7.43;2.00;;;20.50;88.30;;;;;;5071317;28;20095;-56
2022/06/08 08:29:54;;;;;;;9.90;1.88;;;21.00;95.40;;;;;;5071372;28;20097;-54
2022/06/08 08:32:20;;;;;;;5.25;1.50;;;22.30;94.20;;;;;;5071159;28;20075;-58
2022/06/08 08:34:45;;;;;;;4.40;1.23;;;23.50;90.50;;;;;;5071035;28;20044;-53
2022/06/08 08:37:11;;;;;;;5.53;1.27;;;23.80;80.50;;;;;;5058815;28;20036;-51
2022/06/08 08:39:37;;;;;;;4.65;1.30;;;23.90;87.30;;;;;;5051163;28;20075;-59
2022/06/08 08:42:22;;;;;;;4.38;1.27;;;24.30;79.60;;;;;;5050398;28;20195;-52
2022/06/08 08:45:03;;;;;;;3.80;1.20;;;24.60;74.40;;;;;;5069068;28;20143;-56
2022/06/08 08:47:35;;;;;;;8.43;1.48;;;24.80;81.20;;;;;;5066996;28;20033;-60
2022/06/08 08:50:25;;;;;;;6.45;1.20;;;24.80;74.20;;;;;;5056798;28;20109;-48
2022/06/08 08:53:16;;;;;;;2.25;0.80;;;25.50;81.00;;;;;;5051278;28;20111;-56
2022/06/08 08:56:03;;;;;;;8.02;0.88;;;26.00;67.60;;;;;;5051033;28;20387;-53
2022/06/08 08:58:41;;;;;;;4.65;1.10;;;26.60;70.60;;;;;;5042506;28;20118;-55
2022/06/08 09:01:11;;;;;;;3.38;0.90;;;26.20;62.10;;;;;;5052605;28;20099;-49
2022/06/08 09:03:42;;;;;;;3.20;0.73;;;25.60;67.80;;;;;;5050730;28;20502;-59
2022/06/08 09:06:13;;;;;;;6.72;1.13;;;25.60;70.70;;;;;;5050528;28;20108;-55
2022/06/08 09:08:44;;;;;;;4.68;1.10;;;26.20;67.70;;;;;;5050914;28;20036;-59
2022/06/08 09:11:18;;;;;;;3.50;1.30;;;26.00;61.40;;;;;;5050682;28;20025;-58
2022/06/08 09:14:19;;;;;;;5.80;1.13;;;26.10;60.80;;;;;;5050691;28;20021;-56
2022/06/08 09:16:47;;;;;;;4.50;1.00;;;26.20;74.20;;;;;;5031552;28;20388;-50
2022/06/08 09:19:22;;;;;;;4.22;1.40;;;26.10;57.00;;;;;;5050771;28;20017;-51
2022/06/08 09:22:08;;;;;;;4.95;1.02;;;26.70;63.40;;;;;;5050499;28;20087;-58
2022/06/08 09:24:42;;;;;;;3.20;0.70;;;26.80;56.60;;;;;;5051273;28;20025;-54
2022/06/08 09:27:18;;;;;;;2.40;0.80;;;27.20;63.10;;;;;;5068711;28;20112;-54
2022/06/08 09:30:11;;;;;;;3.00;0.95;;;27.20;54.50;;;;;;5070995;28;20029;-54
2022/06/08 09:32:45;;;;;;;4.43;0.90;;;27.00;61.20;;;;;;5057461;28;20411;-52
2022/06/08 09:35:26;;;;;;;3.50;0.98;;;26.20;53.80;;;;;;5070782;28;20024;-56
2022/06/08 09:38:20;;;;;;;3.67;0.82;;;25.10;58.00;;;;;;5070674;28;20435;-54
2022/06/08 09:40:54;;;;;;;6.22;1.00;;;24.40;63.60;;;;;;5067108;28;20087;-48
2022/06/08 09:43:26;;;;;;;4.53;1.00;;;23.60;73.40;;;;;;5068516;28;20523;-42
2022/06/08 09:46:04;;;;;;;5.55;1.00;;;23.80;79.30;;;;;;5067258;28;20094;-41
2022/06/08 09:51:36;;;;;;;5.60;1.00;;;25.30;59.60;;;;;;5067467;28;20039;-40
2022/06/08 09:54:24;;;;;;;4.68;0.98;;;25.00;71.20;;;;;;5069552;28;20099;-54
2022/06/08 09:57:13;;;;;;;2.20;0.88;;;24.10;61.10;;;;;;5072661;28;20394;-56
2022/06/08 10:00:11;;;;;;;4.03;0.93;;;22.70;64.30;;;;;;5069993;28;20434;-50
2022/06/08 10:02:46;;;;;;;6.45;1.45;;;21.80;67.90;;;;;;5057927;28;20036;-55
2022/06/08 10:05:34;;;;;;;5.63;1.40;;;21.30;74.70;;;;;;5054264;28;20029;-53
2022/06/08 10:08:15;;;;;;;7.03;1.63;;;21.10;76.00;;;;;;5053880;28;20309;-58
2022/06/08 10:10:44;;;;;;;4.95;1.40;;;21.10;86.20;;;;;;5067631;28;20047;-55
2022/06/08 10:13:16;;;;;;;;;;;21.90;77.90;;;;;;5063609;28;20025;-61
2022/06/08 10:15:51;;;;;;;7.90;1.50;;;22.10;76.60;;;;;;5053962;28;19911;-57
2022/06/08 10:18:31;;;;;;;5.65;1.30;;;22.20;79.00;;;;;;5054607;28;20435;-58
2022/06/08 10:21:13;;;;;;;3.30;1.02;;;22.40;74.20;;;;;;5053685;28;20033;-60
2022/06/08 10:24:11;;;;;;;10.65;1.50;;;23.20;82.10;;;;;;5057789;28;20029;-54
2022/06/08 10:26:43;;;;;;;3.97;1.05;;;23.70;66.40;;;;;;5065705;28;20024;-49
2022/06/08 10:29:17;;;;;;;5.78;1.05;;;23.80;70.70;;;;;;5073375;28;20486;-52
2022/06/08 10:31:58;;;;;;;7.07;1.58;;;23.60;65.50;;;;;;5073544;28;20110;-61
2022/06/08 10:34:27;;;;;;;10.32;1.80;;;22.80;69.20;;;;;;5073776;28;20020;-54
2022/06/08 10:37:04;;;;;;;;;;;22.40;73.20;;;;;;5074169;28;20024;-55
2022/06/08 10:39:32;;;;;;;12.18;1.70;;;22.10;76.50;;;;;;5073406;28;19919;-59
2022/06/08 10:42:41;;;;;;;8.43;2.17;;;21.80;78.10;;;;;;5073743;28;20021;-48
2022/06/08 10:45:24;;;;;;;9.05;1.98;;;21.40;77.30;;;;;;5063987;28;20049;-59
2022/06/08 10:48:23;;;;;;;8.88;1.67;;;21.20;80.00;;;;;;5053259;28;20496;-52
2022/06/08 10:51:10;;;;;;;11.40;1.95;;;21.30;81.40;;;;;;5053372;28;20028;-62
2022/06/08 10:56:48;;;;;;;10.20;2.00;;;22.80;84.90;;;;;;5053393;28;20023;-61
2022/06/08 10:59:27;;;;;;;10.02;2.47;;;23.50;79.60;;;;;;5052675;28;20442;-54
2022/06/08 11:02:11;;;;;;;10.23;1.88;;;23.60;76.10;;;;;;5053064;28;20040;-49
2022/06/08 11:04:43;;;;;;;11.95;2.40;;;23.10;72.80;;;;;;5052185;28;20032;-57
2022/06/08 11:07:17;;;;;;;8.98;2.33;;;22.50;76.20;;;;;;5052889;28;20104;-51
2022/06/08 11:09:59;;;;;;;14.10;2.53;;;22.30;81.20;;;;;;5052884;28;20036;-57
2022/06/08 11:12:44;;;;;;;13.52;2.75;;;22.20;77.60;;;;;;5054571;28;20028;-50
2022/06/08 11:15:29;;;;;;;13.32;2.53;;;22.30;80.50;;;;;;5072852;28;20495;-58
2022/06/08 11:18:10;;;;;;;9.15;1.75;;;22.40;73.90;;;;;;5072609;28;20029;-58
2022/06/08 11:20:47;;;;;;;11.43;2.42;;;21.90;77.10;;;;;;5072716;28;20495;-62
2022/06/08 11:23:12;;;;;;;10.23;1.80;;;21.70;81.50;;;;;;5072936;28;20068;-55
2022/06/08 11:25:52;;;;;;;14.35;2.55;;;21.50;80.20;;;;;;5058634;28;20432;-47
2022/06/08 11:28:33;;;;;;;10.68;2.10;;;21.20;80.10;;;;;;5072854;28;20028;-49
2022/06/08 11:31:07;;;;;;;14.20;3.30;;;20.60;79.70;;;;;;5060147;28;20040;-61
2022/06/08 11:34:06;;;;;;;12.73;2.83;;;20.50;85.10;;;;;;5072327;28;20025;-51
2022/06/08 11:36:47;;;;;;;15.23;2.88;;;20.60;84.40;;;;;;5072418;28;20058;-50
2022/06/08 11:39:34;;;;;;;14.40;2.72;;;21.40;88.40;;;;;;5072446;28;20033;-59
2022/06/08 11:42:25;;;;;;;11.45;2.38;;;21.80;88.10;;;;;;5072144;28;20442;-59
2022/06/08 11:44:54;;;;;;;9.57;2.20;;;21.90;82.50;;;;;;5072262;28;20039;-48
2022/06/08 11:47:26;;;;;;;14.60;2.85;;;22.70;88.70;;;;;;5072263;28;20036;-59
2022/06/08 11:50:16;;;;;;;11.55;2.35;;;23.10;79.10;;;;;;5061459;28;20400;-44
2022/06/08 11:52:44;;;;;;;15.27;2.75;;;23.30;77.00;;;;;;5064594;28;20025;-41
2022/06/08 11:55:16;;;;;;;12.27;2.85;;;22.80;77.00;;;;;;5070673;28;20506;-46
2022/06/08 11:57:46;;;;;;;18.58;3.28;;;22.30;76.30;;;;;;5070550;28;20158;-40
2022/06/08 12:00:51;;;;;;;11.82;2.30;;;21.90;79.70;;;;;;5068554;28;20028;-39
2022/06/08 12:03:16;;;;;;;12.45;2.83;;;22.20;79.00;;;;;;5069435;28;20036;-43
2022/06/08 12:05:48;;;;;;;9.77;2.30;;;22.60;79.60;;;;;;5064269;28;20036;-41
2022/06/08 12:08:22;;;;;;;11.85;1.90;;;23.30;77.90;;;;;;5051816;28;20028;-41
2022/06/08 12:10:48;;;;;;;11.95;1.85;;;23.50;79.30;;;;;;5051444;28;20067;-41
2022/06/08 12:13:20;;;;;;;9.85;2.20;;;23.20;73.70;;;;;;5058781;28;20029;-41
2022/06/08 12:15:48;;;;;;;11.88;2.38;;;22.80;75.00;;;;;;5055581;28;20023;-60
2022/06/08 12:18:43;;;;;;;10.15;1.95;;;22.20;74.90;;;;;;5051735;28;20025;-41
2022/06/08 12:21:28;;;;;;;20.15;3.10;;;21.80;78.20;;;;;;5053314;28;20193;-44
2022/06/08 12:24:05;;;;;;;12.70;2.47;;;21.60;78.50;;;;;;5064861;28;20029;-54
2022/06/08 12:26:50;;;;;;;16.48;2.38;;;21.80;85.50;;;;;;5068928;28;20029;-56
2022/06/08 12:29:18;;;;;;;15.60;2.72;;;21.90;79.60;;;;;;5070042;28;20052;-57
2022/06/08 12:31:44;;;;;;;27.53;3.80;;;21.70;79.00;;;;;;5070015;28;20450;-56
2022/06/08 12:34:28;;;;;;;15.82;2.65;;;20.90;79.50;;;;;;5071333;28;20297;-58
2022/06/08 12:36:53;;;;;;;18.48;3.22;;;20.40;86.20;;;;;;5057724;28;20107;-59
2022/06/08 12:39:26;;;;;;;14.35;2.40;;;20.10;90.50;;;;;;5071332;28;20115;-58
2022/06/08 12:41:56;;;;;;;12.05;2.20;;;19.80;90.80;;;;;;5071251;28;20235;-60
2022/06/08 12:44:24;;;;;;;10.40;1.70;;;19.40;91.40;;;;;;5067765;28;20099;-58
2022/06/08 12:47:14;;;;;;;12.02;2.72;;;19.30;92.20;;;;;;5054948;28;20139;-53
2022/06/08 12:49:42;;;;;;;6.57;1.52;;;19.20;94.00;;;;;;5051171;28;20472;-50
2022/06/08 12:52:22;;;;;;;7.10;1.90;;;19.50;95.30;;;;;;5067285;28;20029;-61
2022/06/08 12:54:48;;;;;;;7.47;1.90;;;19.70;93.70;;;;;;5057304;28;20107;-55
2022/06/08 12:57:20;;;;;;;6.55;1.55;;;20.10;95.80;;;;;;5050923;28;20439;-46
2022/06/08 12:59:54;;;;;;;6.75;1.55;;;20.80;96.90;;;;;;5050749;28;20123;-59
2022/06/08 13:02:27;;;;;;;6.90;1.52;;;21.30;92.40;;;;;;5050829;28;20013;-61
2022/06/08 13:04:53;;;;;;;5.28;1.50;;;21.90;95.60;;;;;;5050965;28;20121;-59
2022/06/08 13:07:22;;;;;;;5.47;1.17;;;22.30;91.70;;;;;;5050716;28;20029;-56
2022/06/08 13:09:48;;;;;;;3.42;1.02;;;22.30;91.70;;;;;;5050891;28;20054;-52
2022/06/08 13:12:45;;;;;;;5.40;1.30;;;22.60;91.80;;;;;;5050784;28;20017;-55
2022/06/08 13:15:34;;;;;;;6.57;1.00;;;22.70;89.30;;;;;;5049833;28;20033;-57
2022/06/08 13:17:59;;;;;;;;;;;22.70;85.30;;;;;;5051175;28;20502;-55
2022/06/08 13:20:32;;;;;;;2.92;0.80;;;22.60;85.20;;;;;;5050701;28;20015;-53
2022/06/08 13:22:59;;;;;;;2.83;0.82;;;22.70;84.10;;;;;;5051482;28;20029;-58
2022/06/08 13:25:25;;;;;;;3.28;0.70;;;22.70;87.50;;;;;;5056461;28;20036;-45
2022/06/08 13:27:53;;;;;;;2.50;0.60;;;22.70;82.60;;;;;;5073129;28;20509;-61